Time;durP1;ratioP1;P1;durP2;ratioP2;P2;SDS_P1;SDS_P2;PMS_P1;PMS_P2;Temp;Humidity;BMP_temperature;BMP_pressure;BME280_temperature;BME280_humidity;BME280_pressure;Samples;Min_cycle;Max_cycle;Signal;HPM_P1;HPM_P2
2021/08/19 00:02:17;;;;;;;6.50;4.60;;;14.50;99.90;;;;;;5035178;28;20178;-87
2021/08/19 00:04:43;;;;;;;7.80;4.77;;;14.50;99.90;;;;;;5034319;28;20707;-87
2021/08/19 00:07:09;;;;;;;7.93;4.47;;;14.50;99.90;;;;;;5033842;28;20208;-87
2021/08/19 00:09:37;;;;;;;9.10;5.60;;;14.50;99.90;;;;;;5035428;28;20193;-87
2021/08/19 00:12:08;;;;;;;8.50;5.10;;;14.50;99.90;;;;;;5035546;28;20179;-87
2021/08/19 00:14:38;;;;;;;6.87;4.80;;;14.50;99.90;;;;;;5033779;28;20196;-87
2021/08/19 00:17:05;;;;;;;7.50;4.90;;;14.50;99.90;;;;;;5033866;28;20212;-87
2021/08/19 00:19:32;;;;;;;8.90;5.50;;;14.40;99.90;;;;;;5035526;28;20170;-87
2021/08/19 00:21:58;;;;;;;10.30;5.70;;;14.40;99.90;;;;;;5035305;28;20178;-87
2021/08/19 00:24:23;;;;;;;9.63;5.27;;;14.40;99.90;;;;;;5035076;28;20559;-88
2021/08/19 00:26:49;;;;;;;8.97;4.97;;;14.40;99.90;;;;;;5033741;28;20281;-87
2021/08/19 00:29:15;;;;;;;9.30;4.80;;;14.40;99.90;;;;;;5034992;28;20205;-87
2021/08/19 00:31:41;;;;;;;9.77;5.67;;;14.40;99.90;;;;;;5036946;28;20170;-87
2021/08/19 00:34:06;;;;;;;7.93;5.53;;;14.40;99.90;;;;;;5035745;28;20178;-87
2021/08/19 00:36:32;;;;;;;7.33;4.90;;;14.40;99.90;;;;;;5035687;28;20307;-87
2021/08/19 00:39:02;;;;;;;9.77;5.47;;;14.40;99.90;;;;;;5035901;28;20178;-87
2021/08/19 00:41:27;;;;;;;8.00;5.57;;;14.40;99.90;;;;;;5037357;28;20205;-87
2021/08/19 00:44:01;;;;;;;9.47;5.67;;;14.30;99.90;;;;;;5035150;28;20178;-87
2021/08/19 00:46:35;;;;;;;7.77;4.83;;;14.30;99.90;;;;;;5036777;28;20205;-87
2021/08/19 00:49:14;;;;;;;8.10;5.10;;;14.20;99.90;;;;;;5040125;28;20181;-87
2021/08/19 00:51:45;;;;;;;9.27;4.93;;;14.20;99.90;;;;;;5039491;28;20223;-87
2021/08/19 00:54:21;;;;;;;9.07;5.20;;;14.10;99.90;;;;;;5035062;28;20506;-87
2021/08/19 00:56:50;;;;;;;11.90;6.10;;;14.10;99.90;;;;;;5042657;28;20537;-87
2021/08/19 00:59:23;;;;;;;9.17;5.73;;;14.00;99.90;;;;;;5038131;28;20178;-87
2021/08/19 01:01:49;;;;;;;11.30;5.73;;;14.00;99.90;;;;;;5046437;28;20229;-88
2021/08/19 01:04:15;;;;;;;10.07;6.03;;;13.90;99.90;;;;;;5037795;28;20651;-87
2021/08/19 01:06:41;;;;;;;9.63;6.37;;;13.90;99.90;;;;;;5037276;28;20198;-87
2021/08/19 01:09:07;;;;;;;8.63;5.33;;;13.80;99.90;;;;;;5035482;28;20202;-87
2021/08/19 01:11:38;;;;;;;10.53;6.00;;;13.80;99.90;;;;;;5034316;28;20282;-87
2021/08/19 01:14:04;;;;;;;10.30;6.30;;;13.80;99.90;;;;;;5034167;28;20178;-87
2021/08/19 01:16:31;;;;;;;11.90;5.37;;;13.70;99.90;;;;;;5044049;28;20565;-87
2021/08/19 01:18:57;;;;;;;12.30;6.20;;;13.70;99.90;;;;;;5051360;28;20214;-87
2021/08/19 01:21:22;;;;;;;9.57;6.00;;;13.70;99.90;;;;;;5045592;28;20190;-87
2021/08/19 01:23:48;;;;;;;11.07;5.97;;;13.70;99.90;;;;;;5041589;28;20182;-87
2021/08/19 01:26:19;;;;;;;12.53;6.00;;;13.70;99.90;;;;;;5033256;28;20198;-87
2021/08/19 01:28:46;;;;;;;11.40;7.20;;;13.70;99.90;;;;;;5033070;28;20544;-87
2021/08/19 01:31:20;;;;;;;8.33;6.00;;;13.60;99.90;;;;;;5033542;28;20181;-87
2021/08/19 01:33:47;;;;;;;8.73;5.47;;;13.60;99.90;;;;;;5033228;28;20174;-87
2021/08/19 01:36:14;;;;;;;8.97;5.60;;;13.60;99.90;;;;;;5032889;28;20200;-87
2021/08/19 01:38:41;;;;;;;9.60;6.23;;;13.50;99.90;;;;;;5037515;28;20174;-87
2021/08/19 01:41:08;;;;;;;11.43;6.00;;;13.50;99.90;;;;;;5038352;28;20204;-87
2021/08/19 01:43:35;;;;;;;9.87;5.87;;;13.40;99.90;;;;;;5036871;28;20174;-87
2021/08/19 01:46:02;;;;;;;14.10;6.80;;;13.40;99.90;;;;;;5036727;28;20174;-87
2021/08/19 01:48:28;;;;;;;12.47;5.77;;;13.40;99.90;;;;;;5038059;28;20174;-87
2021/08/19 01:50:55;;;;;;;11.57;5.57;;;13.40;99.90;;;;;;5036492;28;20678;-87
2021/08/19 01:53:20;;;;;;;9.43;6.13;;;13.40;99.90;;;;;;5037896;28;20177;-87
2021/08/19 01:55:46;;;;;;;10.43;5.80;;;13.30;99.90;;;;;;5036964;28;20173;-87
2021/08/19 01:58:12;;;;;;;8.73;5.37;;;13.30;99.90;;;;;;5038140;28;20222;-87
2021/08/19 02:00:38;;;;;;;11.33;5.93;;;13.30;99.90;;;;;;5036857;28;20189;-87
2021/08/19 02:03:04;;;;;;;10.10;5.67;;;13.30;99.90;;;;;;5036170;28;20178;-87
2021/08/19 02:05:30;;;;;;;11.20;5.43;;;13.30;99.90;;;;;;5036629;28;20273;-87
2021/08/19 02:07:56;;;;;;;10.60;6.90;;;13.30;99.90;;;;;;5036579;28;20220;-87
2021/08/19 02:10:22;;;;;;;8.60;5.57;;;13.30;99.90;;;;;;5036365;28;20206;-87
2021/08/19 02:12:47;;;;;;;10.97;6.33;;;13.30;99.90;;;;;;5038042;28;20216;-87
2021/08/19 02:15:14;;;;;;;10.77;5.77;;;13.40;99.90;;;;;;5036689;28;20639;-88
2021/08/19 02:17:40;;;;;;;9.50;5.63;;;13.40;99.90;;;;;;5036581;28;20198;-87
2021/08/19 02:20:06;;;;;;;9.27;5.03;;;13.40;99.90;;;;;;5037673;28;20181;-87
2021/08/19 02:22:32;;;;;;;8.90;5.23;;;13.40;99.90;;;;;;5036130;28;20202;-87
2021/08/19 02:24:57;;;;;;;9.57;5.63;;;13.50;99.90;;;;;;5036372;28;20228;-87
2021/08/19 02:27:23;;;;;;;9.57;5.57;;;13.50;99.90;;;;;;5036166;28;20209;-87
2021/08/19 02:29:49;;;;;;;10.07;6.00;;;13.50;99.90;;;;;;5035705;28;20206;-87
2021/08/19 02:32:19;;;;;;;12.53;6.27;;;13.50;99.90;;;;;;5036112;28;20185;-88
2021/08/19 02:34:45;;;;;;;10.07;5.50;;;13.60;99.90;;;;;;5036208;28;20180;-87
2021/08/19 02:37:10;;;;;;;9.53;6.10;;;13.60;99.90;;;;;;5035700;28;20217;-87
2021/08/19 02:39:36;;;;;;;9.97;6.00;;;13.60;99.90;;;;;;5036069;28;20212;-87
2021/08/19 02:42:02;;;;;;;11.17;5.33;;;13.60;99.90;;;;;;5036551;28;20181;-87
2021/08/19 02:44:28;;;;;;;7.47;5.33;;;13.60;99.90;;;;;;5037090;28;20636;-87
2021/08/19 02:46:53;;;;;;;9.97;5.37;;;13.60;99.90;;;;;;5035834;28;20202;-88
2021/08/19 02:49:19;;;;;;;7.63;5.10;;;13.60;99.90;;;;;;5034554;28;20198;-87
2021/08/19 02:51:45;;;;;;;8.17;5.30;;;13.70;99.90;;;;;;5035926;28;20178;-87
2021/08/19 02:54:10;;;;;;;9.50;5.57;;;13.70;99.90;;;;;;5037386;28;20173;-87
2021/08/19 02:56:36;;;;;;;9.60;5.27;;;13.70;99.90;;;;;;5036958;28;20217;-87
2021/08/19 02:59:02;;;;;;;8.03;5.23;;;13.70;99.90;;;;;;5037128;28;20529;-87
2021/08/19 03:01:27;;;;;;;7.47;5.27;;;13.70;99.90;;;;;;5037468;28;20181;-87
2021/08/19 03:03:53;;;;;;;7.53;5.00;;;13.70;99.90;;;;;;5037180;28;20233;-87
2021/08/19 03:06:19;;;;;;;8.67;4.83;;;13.70;99.90;;;;;;5037158;28;20198;-87
2021/08/19 03:08:44;;;;;;;10.43;5.60;;;13.70;99.90;;;;;;5036238;28;20244;-87
2021/08/19 03:11:10;;;;;;;7.67;5.30;;;13.70;99.90;;;;;;5038912;28;20175;-87
2021/08/19 03:13:37;;;;;;;7.87;5.50;;;13.70;99.90;;;;;;5045283;28;20209;-87
2021/08/19 03:16:03;;;;;;;8.70;5.47;;;13.70;99.90;;;;;;5035965;28;20187;-87
2021/08/19 03:18:28;;;;;;;8.90;5.47;;;13.70;99.90;;;;;;5035924;28;20202;-87
2021/08/19 03:20:54;;;;;;;7.67;5.20;;;13.70;99.90;;;;;;5036951;28;20205;-87
2021/08/19 03:23:20;;;;;;;11.97;5.90;;;13.70;99.90;;;;;;5035121;28;20178;-87
2021/08/19 03:25:46;;;;;;;9.93;5.50;;;13.70;99.90;;;;;;5035771;28;20179;-87
2021/08/19 03:28:12;;;;;;;10.50;5.93;;;13.70;99.90;;;;;;5035550;28;20198;-87
2021/08/19 03:30:38;;;;;;;8.73;4.73;;;13.70;99.90;;;;;;5035292;28;20210;-87
2021/08/19 03:33:05;;;;;;;9.47;5.50;;;13.70;99.90;;;;;;5035321;28;20170;-87
2021/08/19 03:35:34;;;;;;;9.33;5.50;;;13.70;99.90;;;;;;5036790;28;20170;-87
2021/08/19 03:38:00;;;;;;;8.00;4.90;;;13.70;99.90;;;;;;5035898;28;20206;-87
2021/08/19 03:40:26;;;;;;;7.33;5.00;;;13.80;99.90;;;;;;5037570;28;20184;-87
2021/08/19 03:42:52;;;;;;;9.17;5.37;;;13.80;99.90;;;;;;5039578;28;20174;-87
2021/08/19 03:45:19;;;;;;;9.00;5.00;;;13.80;99.90;;;;;;5040418;28;20524;-86
2021/08/19 03:47:48;;;;;;;7.57;4.87;;;13.80;99.90;;;;;;5046422;28;20204;-88
2021/08/19 03:50:17;;;;;;;7.57;5.07;;;13.80;99.90;;;;;;5037275;28;20205;-87
2021/08/19 03:52:43;;;;;;;8.90;5.30;;;13.80;99.90;;;;;;5039735;28;20174;-87
2021/08/19 03:55:09;;;;;;;7.20;4.73;;;13.80;99.90;;;;;;5038479;28;20647;-87
2021/08/19 03:57:34;;;;;;;8.30;4.93;;;13.90;99.90;;;;;;5037373;28;20197;-87
2021/08/19 04:00:00;;;;;;;7.07;4.70;;;13.90;99.90;;;;;;5036029;28;20174;-87
2021/08/19 04:02:25;;;;;;;8.93;5.37;;;13.80;99.90;;;;;;5036899;28;20632;-86
2021/08/19 04:04:51;;;;;;;9.00;4.83;;;13.80;99.90;;;;;;5036804;28;20194;-87
2021/08/19 04:07:17;;;;;;;7.77;4.90;;;13.80;99.90;;;;;;5036965;28;20721;-87
2021/08/19 04:09:43;;;;;;;7.87;5.00;;;13.80;99.90;;;;;;5037262;28;20213;-87
2021/08/19 04:12:08;;;;;;;8.67;4.50;;;13.80;99.90;;;;;;5036879;28;20181;-87
2021/08/19 04:14:34;;;;;;;7.40;4.70;;;13.80;99.90;;;;;;5036790;28;20174;-87
2021/08/19 04:16:59;;;;;;;9.97;4.93;;;13.80;99.90;;;;;;5035290;28;20684;-87
2021/08/19 04:19:25;;;;;;;6.77;4.63;;;13.90;99.90;;;;;;5036897;28;20640;-87
2021/08/19 04:21:54;;;;;;;9.20;4.97;;;13.80;99.90;;;;;;5037281;28;20189;-86
2021/08/19 04:24:20;;;;;;;7.40;4.87;;;13.80;99.90;;;;;;5035638;28;20178;-87
2021/08/19 04:26:45;;;;;;;8.37;3.97;;;13.90;99.90;;;;;;5035506;28;20201;-87
2021/08/19 04:29:11;;;;;;;9.03;4.87;;;13.80;99.90;;;;;;5035238;28;20202;-87
2021/08/19 04:31:37;;;;;;;12.00;4.70;;;13.90;99.90;;;;;;5036023;28;20174;-87
2021/08/19 04:34:03;;;;;;;7.10;4.17;;;13.90;99.90;;;;;;5035285;28;20212;-87
2021/08/19 04:36:30;;;;;;;7.07;4.90;;;13.90;99.90;;;;;;5035302;28;20647;-87
2021/08/19 04:38:56;;;;;;;5.80;4.20;;;13.90;99.90;;;;;;5035763;28;20174;-87
2021/08/19 04:41:22;;;;;;;9.57;4.50;;;14.00;99.90;;;;;;5036987;28;20170;-87
2021/08/19 04:43:47;;;;;;;7.30;5.00;;;14.00;99.90;;;;;;5044719;28;20217;-87
2021/08/19 04:46:13;;;;;;;7.43;4.47;;;14.00;99.90;;;;;;5036389;28;20281;-87
2021/08/19 04:48:39;;;;;;;8.33;5.00;;;14.00;99.90;;;;;;5036335;28;20538;-87
2021/08/19 04:51:05;;;;;;;10.17;5.17;;;14.00;99.90;;;;;;5037652;28;20170;-87
2021/08/19 04:53:30;;;;;;;7.40;4.80;;;14.00;99.90;;;;;;5037679;28;20244;-87
2021/08/19 04:55:56;;;;;;;9.07;5.10;;;14.00;99.90;;;;;;5039249;28;20179;-87
2021/08/19 04:58:22;;;;;;;8.20;5.13;;;14.00;99.90;;;;;;5043821;28;20174;-88
2021/08/19 05:00:47;;;;;;;6.50;4.20;;;14.00;99.90;;;;;;5044744;28;20648;-87
2021/08/19 05:03:13;;;;;;;9.30;4.70;;;14.00;99.90;;;;;;5040135;28;20174;-87
2021/08/19 05:05:39;;;;;;;5.97;4.23;;;14.00;99.90;;;;;;5034698;28;20178;-87
2021/08/19 05:08:05;;;;;;;6.03;4.57;;;14.00;99.90;;;;;;5036051;28;20194;-87
2021/08/19 05:10:30;;;;;;;7.50;4.70;;;14.00;99.90;;;;;;5034640;28;20209;-87
2021/08/19 05:12:56;;;;;;;7.47;5.07;;;14.10;99.90;;;;;;5036435;28;20663;-87
2021/08/19 05:15:22;;;;;;;8.93;5.07;;;14.10;99.90;;;;;;5038702;28;20188;-87
2021/08/19 05:17:47;;;;;;;7.47;4.93;;;14.10;99.90;;;;;;5038719;28;20229;-87
2021/08/19 05:20:14;;;;;;;8.77;4.53;;;14.10;99.90;;;;;;5039106;28;20186;-88
2021/08/19 05:22:39;;;;;;;6.47;4.50;;;14.10;99.90;;;;;;5038285;28;20205;-87
2021/08/19 05:25:06;;;;;;;8.20;5.03;;;14.20;99.90;;;;;;5040309;28;20185;-87
2021/08/19 05:27:32;;;;;;;7.97;4.60;;;14.20;99.90;;;;;;5038053;28;20268;-87
2021/08/19 05:29:57;;;;;;;8.10;4.80;;;14.20;99.90;;;;;;5038002;28;20664;-87
2021/08/19 05:32:23;;;;;;;8.17;4.87;;;14.20;99.90;;;;;;5038002;28;20212;-87
2021/08/19 05:34:49;;;;;;;8.37;5.27;;;14.20;99.90;;;;;;5037699;28;20182;-87
2021/08/19 05:37:15;;;;;;;8.27;4.63;;;14.20;99.90;;;;;;5037492;28;20308;-87
2021/08/19 05:39:40;;;;;;;8.10;4.90;;;14.20;99.90;;;;;;5038272;28;20182;-87
2021/08/19 05:42:06;;;;;;;6.37;4.50;;;14.30;99.90;;;;;;5037490;28;20209;-87
2021/08/19 05:44:32;;;;;;;7.90;4.40;;;14.30;99.90;;;;;;5037246;28;20179;-87
2021/08/19 05:46:58;;;;;;;8.63;4.73;;;14.30;99.90;;;;;;5037912;28;20198;-87
2021/08/19 05:49:24;;;;;;;7.67;4.57;;;14.40;99.90;;;;;;5036915;28;20745;-87
2021/08/19 05:51:49;;;;;;;5.60;4.40;;;14.40;99.90;;;;;;5037324;28;20175;-87
2021/08/19 05:54:16;;;;;;;5.60;4.10;;;14.40;99.90;;;;;;5037028;28;20212;-87
2021/08/19 05:56:41;;;;;;;8.20;4.57;;;14.40;99.90;;;;;;5037249;28;20194;-87
2021/08/19 05:59:07;;;;;;;6.87;4.83;;;14.40;99.90;;;;;;5037135;28;20189;-87
2021/08/19 06:01:33;;;;;;;8.07;4.23;;;14.50;99.90;;;;;;5037239;28;20178;-87
2021/08/19 06:03:59;;;;;;;7.47;4.40;;;14.50;99.90;;;;;;5036958;28;20641;-87
2021/08/19 06:06:24;;;;;;;8.07;4.47;;;14.50;99.90;;;;;;5036935;28;20238;-87
2021/08/19 06:08:50;;;;;;;7.33;4.87;;;14.50;99.90;;;;;;5038315;28;20257;-87
2021/08/19 06:11:15;;;;;;;8.30;4.93;;;14.60;99.90;;;;;;5037445;28;20544;-87
2021/08/19 06:13:41;;;;;;;7.30;4.73;;;14.60;99.90;;;;;;5037457;28;20274;-87
2021/08/19 06:16:07;;;;;;;7.03;5.17;;;14.70;99.90;;;;;;5038246;28;20586;-86
2021/08/19 06:18:33;;;;;;;8.33;4.47;;;14.70;99.90;;;;;;5038741;28;20613;-87
2021/08/19 06:20:58;;;;;;;4.67;3.93;;;14.80;99.90;;;;;;5036566;28;20183;-87
2021/08/19 06:23:24;;;;;;;9.57;4.63;;;14.90;99.90;;;;;;5036499;28;20175;-87
2021/08/19 06:25:50;;;;;;;5.70;4.17;;;14.90;99.90;;;;;;5036609;28;20182;-87
2021/08/19 06:28:16;;;;;;;7.47;4.47;;;14.90;99.90;;;;;;5036382;28;20556;-87
2021/08/19 06:30:41;;;;;;;7.77;4.63;;;15.00;99.90;;;;;;5036332;28;20202;-87
2021/08/19 06:33:10;;;;;;;7.37;4.57;;;15.00;99.90;;;;;;5037834;28;20226;-87
2021/08/19 06:35:35;;;;;;;6.93;4.03;;;15.10;99.90;;;;;;5038086;28;20194;-87
2021/08/19 06:38:01;;;;;;;6.33;4.23;;;15.20;99.90;;;;;;5036737;28;20675;-87
2021/08/19 06:40:27;;;;;;;6.30;4.17;;;15.20;99.90;;;;;;5037744;28;20174;-87
2021/08/19 06:42:52;;;;;;;5.73;3.73;;;15.20;99.90;;;;;;5036936;28;20319;-88
2021/08/19 06:45:18;;;;;;;4.80;3.60;;;15.30;99.90;;;;;;5037320;28;20178;-87
2021/08/19 06:47:44;;;;;;;5.83;3.57;;;15.40;99.90;;;;;;5036531;28;20194;-87
2021/08/19 06:50:10;;;;;;;7.43;3.50;;;15.40;99.90;;;;;;5036628;28;20616;-87
2021/08/19 06:52:44;;;;;;;5.67;4.03;;;15.40;99.90;;;;;;5037448;28;20166;-87
2021/08/19 06:55:10;;;;;;;5.63;3.67;;;15.50;99.90;;;;;;5036268;28;20546;-87
2021/08/19 06:57:37;;;;;;;5.17;3.53;;;15.50;99.90;;;;;;5038360;28;20660;-87
2021/08/19 07:00:04;;;;;;;5.87;3.70;;;15.60;99.90;;;;;;5038492;28;20188;-87
2021/08/19 07:02:30;;;;;;;4.07;3.20;;;15.70;99.90;;;;;;5041420;28;20242;-87
2021/08/19 07:04:56;;;;;;;3.67;3.00;;;15.70;99.90;;;;;;5040691;28;20202;-87
2021/08/19 07:07:21;;;;;;;4.77;3.50;;;15.80;99.90;;;;;;5035680;28;20202;-87
2021/08/19 07:09:48;;;;;;;3.93;3.30;;;15.80;99.90;;;;;;5035668;28;20225;-88
2021/08/19 07:12:14;;;;;;;4.40;3.10;;;15.80;99.90;;;;;;5037292;28;20174;-87
2021/08/19 07:14:40;;;;;;;7.50;3.50;;;15.80;99.90;;;;;;5035678;28;20182;-88
2021/08/19 07:17:05;;;;;;;6.03;3.43;;;15.90;99.90;;;;;;5035458;28;20202;-87
2021/08/19 07:19:31;;;;;;;6.10;3.80;;;15.90;99.90;;;;;;5035558;28;20189;-88
2021/08/19 07:21:57;;;;;;;5.33;3.50;;;16.00;99.90;;;;;;5035287;28;20182;-88
2021/08/19 07:24:23;;;;;;;5.50;3.50;;;16.10;99.90;;;;;;5035421;28;20556;-87
2021/08/19 07:26:48;;;;;;;4.87;3.23;;;16.20;99.90;;;;;;5036798;28;20202;-87
2021/08/19 07:29:14;;;;;;;4.80;3.50;;;16.20;99.90;;;;;;5035662;28;20230;-87
2021/08/19 07:31:39;;;;;;;4.60;3.80;;;16.20;99.90;;;;;;5036778;28;20209;-87
2021/08/19 07:34:06;;;;;;;4.20;3.13;;;16.30;99.90;;;;;;5035349;28;20711;-88
2021/08/19 07:36:32;;;;;;;4.27;3.60;;;16.40;99.90;;;;;;5034434;28;20238;-88
2021/08/19 07:39:03;;;;;;;5.03;3.53;;;16.50;99.90;;;;;;5036125;28;20170;-88
2021/08/19 07:41:29;;;;;;;4.50;3.60;;;16.60;99.90;;;;;;5036186;28;20170;-87
2021/08/19 07:43:54;;;;;;;5.03;3.17;;;16.50;99.90;;;;;;5035026;28;20189;-88
2021/08/19 07:46:20;;;;;;;5.50;3.30;;;16.50;99.90;;;;;;5036942;28;20571;-87
2021/08/19 07:48:46;;;;;;;6.10;3.27;;;16.60;99.90;;;;;;5044476;28;20268;-87
2021/08/19 07:51:12;;;;;;;3.30;2.63;;;16.60;99.90;;;;;;5034938;28;20212;-88
2021/08/19 07:53:39;;;;;;;4.10;3.50;;;16.60;99.90;;;;;;5034513;28;20181;-88
2021/08/19 07:56:05;;;;;;;3.77;3.20;;;16.70;99.90;;;;;;5034632;28;20183;-88
2021/08/19 07:58:30;;;;;;;3.67;2.70;;;16.70;99.90;;;;;;5034742;28;20186;-88
2021/08/19 08:00:58;;;;;;;3.13;2.70;;;16.80;99.90;;;;;;5034638;28;20203;-89
2021/08/19 08:03:23;;;;;;;3.43;2.70;;;16.90;99.90;;;;;;5034942;28;20186;-88
2021/08/19 08:05:49;;;;;;;3.70;2.60;;;16.90;99.90;;;;;;5034629;28;20240;-88
2021/08/19 08:08:15;;;;;;;3.27;2.57;;;17.00;99.90;;;;;;5036218;28;20195;-88
2021/08/19 08:10:42;;;;;;;3.37;2.60;;;17.00;99.90;;;;;;5035022;28;20206;-88
2021/08/19 08:13:08;;;;;;;4.40;2.57;;;17.00;99.90;;;;;;5034608;28;20180;-89
2021/08/19 08:15:36;;;;;;;3.03;2.73;;;17.00;99.90;;;;;;5034501;28;20186;-88
2021/08/19 08:18:03;;;;;;;2.73;2.33;;;17.00;99.90;;;;;;5034683;28;20230;-88
2021/08/19 08:20:31;;;;;;;4.80;2.93;;;17.00;99.90;;;;;;5035774;28;20184;-88
2021/08/19 08:22:58;;;;;;;2.90;2.60;;;17.30;99.90;;;;;;5032905;28;20197;-88
2021/08/19 08:25:23;;;;;;;3.63;2.90;;;17.10;99.90;;;;;;5034457;28;20193;-88
2021/08/19 08:27:57;;;;;;;3.57;2.73;;;17.30;99.90;;;;;;5034364;28;20259;-88
2021/08/19 08:30:23;;;;;;;3.73;2.60;;;17.40;99.90;;;;;;5036469;28;20212;-88
2021/08/19 08:32:48;;;;;;;4.47;2.90;;;17.40;99.90;;;;;;5036478;28;20186;-89
2021/08/19 08:35:14;;;;;;;3.83;3.00;;;17.40;99.90;;;;;;5034899;28;20186;-89
2021/08/19 08:37:40;;;;;;;3.30;2.80;;;17.40;99.90;;;;;;5034353;28;20215;-89
2021/08/19 08:40:07;;;;;;;4.63;2.63;;;17.40;99.90;;;;;;5034309;28;20182;-89
2021/08/19 08:42:35;;;;;;;4.57;3.07;;;17.40;99.90;;;;;;5034140;28;20186;-89
2021/08/19 08:45:01;;;;;;;2.97;2.50;;;17.40;99.90;;;;;;5044195;28;20183;-88
2021/08/19 08:47:32;;;;;;;5.53;3.10;;;17.50;99.90;;;;;;5044438;28;20214;-88
2021/08/19 08:50:02;;;;;;;3.63;3.00;;;17.50;99.90;;;;;;5049296;28;20672;-89
2021/08/19 08:52:28;;;;;;;5.70;2.90;;;17.70;99.90;;;;;;5051940;28;20194;-89
2021/08/19 08:54:55;;;;;;;3.10;2.50;;;17.80;99.90;;;;;;5035498;28;20640;-90
2021/08/19 08:58:07;;;;;;;3.87;2.70;;;17.80;99.90;;;;;;5136682;23;20709;-89
2021/08/19 09:01:03;;;;;;;5.40;3.30;;;17.50;99.90;;;;;;4976645;28;20246;-89
2021/08/19 09:03:52;;;;;;;3.63;3.00;;;18.10;99.90;;;;;;4975153;28;20182;-89
2021/08/19 09:06:43;;;;;;;3.63;3.13;;;18.40;99.90;;;;;;4989960;28;20292;-90
2021/08/19 09:09:22;;;;;;;3.67;3.10;;;18.70;99.90;;;;;;5054902;28;20211;-89
2021/08/19 09:11:55;;;;;;;4.33;2.93;;;19.00;99.90;;;;;;5056485;28;20196;-89
2021/08/19 09:14:27;;;;;;;6.50;2.73;;;18.90;99.90;;;;;;5047902;28;20616;-90
2021/08/19 09:16:59;;;;;;;4.17;3.20;;;18.90;99.90;;;;;;5067925;22;20227;-90
2021/08/19 09:19:30;;;;;;;6.57;4.10;;;18.80;99.90;;;;;;5034477;28;20178;-89
2021/08/19 09:22:09;;;;;;;3.30;2.97;;;18.70;99.90;;;;;;5035950;28;20305;-89
2021/08/19 09:24:35;;;;;;;2.87;2.57;;;18.70;99.90;;;;;;5034096;28;20175;-90
2021/08/19 09:27:13;;;;;;;3.43;2.57;;;18.70;99.90;;;;;;5033631;28;20202;-90
2021/08/19 09:29:39;;;;;;;3.30;2.80;;;18.70;99.90;;;;;;5034102;28;20207;-90
2021/08/19 09:32:08;;;;;;;3.80;2.20;;;18.60;99.90;;;;;;5034373;28;20176;-90
2021/08/19 09:34:37;;;;;;;3.33;2.80;;;18.50;99.90;;;;;;5034472;28;20186;-90
2021/08/19 09:45:50;;;;;;;4.20;3.00;;;18.50;99.90;;;;;;5072023;28;20211;-90
2021/08/19 09:48:31;;;;;;;3.00;2.50;;;18.80;99.90;;;;;;5251632;22;20585;-90
2021/08/19 09:51:31;;;;;;;3.70;2.97;;;19.30;99.90;;;;;;5074026;28;20215;-90
2021/08/19 09:53:59;;;;;;;3.07;2.77;;;19.80;99.90;;;;;;5073884;28;20203;-90
2021/08/19 09:56:50;;;;;;;4.23;2.57;;;20.20;99.90;;;;;;5073573;28;20195;-91
2021/08/19 09:59:25;;;;;;;3.97;3.00;;;20.80;99.90;;;;;;5077264;28;20180;-90
2021/08/19 10:01:53;;;;;;;3.87;2.53;;;21.00;99.90;;;;;;5078185;28;20182;-90
2021/08/19 10:04:24;;;;;;;3.83;2.60;;;21.20;99.90;;;;;;5077603;28;20184;-90
2021/08/19 10:06:50;;;;;;;3.20;2.50;;;21.40;99.90;;;;;;5077404;28;20204;-90
2021/08/19 10:09:17;;;;;;;4.20;2.37;;;21.50;99.90;;;;;;5077270;28;20207;-90
2021/08/19 10:11:47;;;;;;;3.50;2.70;;;21.20;99.90;;;;;;5077393;28;20200;-90
2021/08/19 10:14:16;;;;;;;3.37;2.37;;;21.00;99.90;;;;;;5076724;28;20173;-90
2021/08/19 10:16:52;;;;;;;2.80;2.53;;;20.90;99.90;;;;;;5177992;22;20573;-91
2021/08/19 10:19:37;;;;;;;3.47;2.80;;;19.70;99.90;;;;;;5077359;28;20195;-90
2021/08/19 10:22:15;;;;;;;4.17;3.00;;;20.10;99.90;;;;;;5077973;28;20654;-90
2021/08/19 10:24:55;;;;;;;4.50;2.70;;;19.80;99.90;;;;;;5076986;28;20172;-90
2021/08/19 10:27:29;;;;;;;3.17;2.63;;;19.90;99.90;;;;;;5077469;28;20212;-90
2021/08/19 10:30:48;;;;;;;6.33;3.17;;;19.40;99.90;;;;;;5077909;28;20203;-90
2021/08/19 10:33:47;;;;;;;3.53;2.73;;;19.20;99.90;;;;;;5074216;28;20191;-90
2021/08/19 10:36:15;;;;;;;3.47;3.00;;;19.10;99.90;;;;;;5072339;28;20207;-90
2021/08/19 10:39:06;;;;;;;3.13;2.77;;;19.00;99.90;;;;;;5076588;28;20175;-90
2021/08/19 10:41:34;;;;;;;3.10;2.70;;;19.00;99.90;;;;;;5074123;28;20207;-91
2021/08/19 10:45:14;;;;;;;4.67;3.33;;;18.90;99.90;;;;;;5076255;28;20596;-90
2021/08/19 10:47:56;;;;;;;8.13;3.60;;;19.20;99.90;;;;;;5087856;22;20241;-90
2021/08/19 10:51:09;;;;;;;5.37;2.90;;;19.30;99.90;;;;;;5076633;28;20700;-90
2021/08/19 10:53:56;;;;;;;3.43;2.93;;;19.40;99.90;;;;;;5075945;28;20192;-89
2021/08/19 10:56:52;;;;;;;4.30;2.90;;;19.40;99.90;;;;;;5075863;28;20291;-89
2021/08/19 11:00:05;;;;;;;4.53;3.03;;;19.40;99.90;;;;;;5076261;28;20277;-89
2021/08/19 11:03:18;;;;;;;;;;;;;;;;;;;;;
2021/08/19 11:05:50;;;;;;;4.73;2.80;;;20.00;99.90;;;;;;5077028;28;20187;-89
2021/08/19 11:13:11;;;;;;;4.93;2.70;;;20.60;99.90;;;;;;5078932;28;20334;-89
2021/08/19 11:15:45;;;;;;;3.33;2.23;;;21.20;99.90;;;;;;5072908;28;20184;-89
2021/08/19 11:18:54;;;;;;;4.77;3.00;;;21.40;99.90;;;;;;5090006;28;20200;-89
2021/08/19 11:28:57;;;;;;;3.70;2.77;;;22.10;99.90;;;;;;5067394;28;20205;-89
2021/08/19 11:32:04;;;;;;;3.50;2.73;;;21.60;99.90;;;;;;5075430;28;20588;-90
2021/08/19 11:41:22;;;;;;;2.30;2.10;;;20.20;99.90;;;;;;5068809;28;20192;-90
2021/08/19 12:07:48;;;;;;;5.00;2.63;;;21.60;99.90;;;;;;5055195;28;20236;-90
2021/08/19 12:10:16;;;;;;;4.03;2.40;;;21.80;99.90;;;;;;5053860;28;20273;-90
2021/08/19 12:12:45;;;;;;;2.70;2.30;;;21.80;99.90;;;;;;5054429;28;20180;-90
2021/08/19 12:15:15;;;;;;;4.53;2.07;;;22.00;99.90;;;;;;5054282;28;20205;-90
2021/08/19 12:17:42;;;;;;;4.70;2.80;;;22.20;99.90;;;;;;5038671;28;20659;-90
2021/08/19 12:20:12;;;;;;;4.87;2.43;;;22.20;99.90;;;;;;5054813;28;20188;-90
2021/08/19 12:22:39;;;;;;;2.97;2.67;;;22.10;99.90;;;;;;5055084;28;20243;-90
2021/08/19 12:25:19;;;;;;;3.80;2.70;;;21.80;99.90;;;;;;5054884;28;20206;-90
2021/08/19 12:27:45;;;;;;;4.00;2.70;;;21.80;99.90;;;;;;5055007;28;20289;-90
2021/08/19 12:30:11;;;;;;;3.70;2.63;;;21.90;99.90;;;;;;5054540;28;20202;-91
2021/08/19 12:32:37;;;;;;;3.10;2.80;;;21.70;99.90;;;;;;5054120;28;20287;-90
2021/08/19 12:35:07;;;;;;;4.40;3.17;;;21.70;99.90;;;;;;5054980;28;20176;-92
2021/08/19 12:37:35;;;;;;;3.97;2.77;;;21.70;99.90;;;;;;5054449;28;20204;-90
2021/08/19 12:40:15;;;;;;;3.13;2.43;;;21.50;99.90;;;;;;5054400;28;20174;-92
2021/08/19 12:42:43;;;;;;;2.63;2.40;;;21.30;99.90;;;;;;5054673;28;20242;-90
2021/08/19 12:45:12;;;;;;;3.90;2.57;;;21.20;99.90;;;;;;5054957;28;20178;-91
2021/08/19 12:48:00;;;;;;;3.77;3.10;;;21.50;99.90;;;;;;5057115;28;20197;-91
2021/08/19 12:50:26;;;;;;;3.90;2.63;;;21.70;99.90;;;;;;5062084;28;20197;-91
2021/08/19 12:53:03;;;;;;;3.17;2.70;;;21.90;99.90;;;;;;5059638;28;20186;-90
2021/08/19 12:55:30;;;;;;;3.10;2.53;;;21.80;99.90;;;;;;5057491;28;20666;-91
2021/08/19 12:57:56;;;;;;;3.40;2.00;;;21.70;99.90;;;;;;5061999;28;20272;-90
2021/08/19 13:00:27;;;;;;;7.10;3.07;;;21.50;99.90;;;;;;5054054;28;20189;-91
2021/08/19 13:02:54;;;;;;;4.17;2.50;;;21.40;99.90;;;;;;5053478;28;20182;-90
2021/08/19 13:05:24;;;;;;;3.97;3.17;;;21.30;99.90;;;;;;5054248;28;20673;-90
2021/08/19 13:07:59;;;;;;;3.03;2.53;;;21.50;99.90;;;;;;5100364;22;20320;-92
2021/08/19 13:10:44;;;;;;;4.27;3.20;;;21.60;99.90;;;;;;5073075;28;20239;-91
2021/08/19 13:13:10;;;;;;;4.37;2.23;;;22.30;99.90;;;;;;5073111;28;20176;-91
2021/08/19 13:15:36;;;;;;;2.43;2.10;;;22.90;99.90;;;;;;5072997;28;20179;-91
2021/08/19 13:18:01;;;;;;;3.70;2.63;;;23.50;99.90;;;;;;5073211;28;20295;-91
2021/08/19 13:20:27;;;;;;;5.07;2.90;;;23.80;99.90;;;;;;5072844;28;20232;-91
2021/08/19 13:22:53;;;;;;;7.60;3.00;;;24.10;99.90;;;;;;5074322;28;20184;-92
2021/08/19 13:25:18;;;;;;;2.83;2.43;;;24.30;99.90;;;;;;5073193;28;20204;-92
2021/08/19 13:28:00;;;;;;;2.93;2.63;;;24.20;99.90;;;;;;5073734;28;20283;-93
2021/08/19 13:30:28;;;;;;;3.67;2.97;;;24.20;99.90;;;;;;5073612;28;20217;-93
2021/08/19 13:32:54;;;;;;;2.60;2.40;;;24.30;99.90;;;;;;5074702;28;20178;-88
2021/08/19 13:35:20;;;;;;;4.63;2.80;;;24.10;99.90;;;;;;5078652;28;20371;-91
2021/08/19 13:37:45;;;;;;;3.83;2.60;;;23.40;99.90;;;;;;5078945;28;20202;-90
2021/08/19 13:40:11;;;;;;;3.80;2.63;;;22.80;99.90;;;;;;5082947;28;20186;-92
2021/08/19 13:42:37;;;;;;;2.83;2.50;;;22.80;99.90;;;;;;5079025;28;20176;-90
2021/08/19 13:45:03;;;;;;;3.53;2.53;;;23.30;99.90;;;;;;5077690;28;20552;-92
2021/08/19 13:47:28;;;;;;;4.50;2.47;;;23.20;99.90;;;;;;5077188;28;20303;-91
2021/08/19 13:49:54;;;;;;;3.93;2.50;;;23.50;99.90;;;;;;5077480;28;20284;-91
2021/08/19 13:52:19;;;;;;;5.07;2.80;;;23.80;99.90;;;;;;5076202;28;20572;-91